createdAt,value
2022-08-23T00:01:40.283Z,9.34
2022-08-23T00:04:11.693Z,9.30
2022-08-23T00:06:40.421Z,9.22
2022-08-23T00:09:08.857Z,9.26
2022-08-23T00:11:39.050Z,9.21
2022-08-23T00:14:11.863Z,9.21
2022-08-23T00:16:41.097Z,9.18
2022-08-23T00:19:10.892Z,9.13
2022-08-23T00:21:39.086Z,9.13
2022-08-23T00:24:08.894Z,9.16
2022-08-23T00:26:54.965Z,9.14
2022-08-23T00:29:27.032Z,9.15
2022-08-23T00:31:55.240Z,9.13
2022-08-23T00:34:22.982Z,9.11
2022-08-23T00:36:50.967Z,9.13
2022-08-23T00:39:20.186Z,9.12
2022-08-23T00:41:49.887Z,9.12
2022-08-23T00:44:40.471Z,9.12
2022-08-23T00:47:29.107Z,9.07
2022-08-23T00:50:03.341Z,9.02
2022-08-23T00:52:54.161Z,9.04
2022-08-23T00:55:22.626Z,9.03
2022-08-23T00:57:50.462Z,9.01
2022-08-23T01:00:19.915Z,9.10
2022-08-23T01:02:51.604Z,9.15
2022-08-23T01:05:20.246Z,9.18
2022-08-23T01:07:50.326Z,9.15
2022-08-23T01:10:24.347Z,9.13
2022-08-23T01:13:00.966Z,9.15
2022-08-23T01:15:35.360Z,9.14
2022-08-23T01:18:07.580Z,9.11
2022-08-23T01:20:43.563Z,9.04
2022-08-23T01:23:26.215Z,9.04
2022-08-23T01:25:54.514Z,9.00
2022-08-23T01:28:22.390Z,8.98
2022-08-23T01:30:50.467Z,8.92
2022-08-23T01:33:18.716Z,8.85
2022-08-23T01:35:50.559Z,8.79
2022-08-23T01:38:18.502Z,8.87
2022-08-23T01:40:47.888Z,8.95
2022-08-23T01:43:18.110Z,9.03
2022-08-23T01:45:45.881Z,9.03
2022-08-23T01:48:14.227Z,8.95
2022-08-23T01:50:42.391Z,8.89
2022-08-23T01:53:10.891Z,8.93
2022-08-23T01:55:40.612Z,8.97
2022-08-23T01:58:10.902Z,8.93
2022-08-23T02:00:41.487Z,8.89
2022-08-23T02:03:10.094Z,8.87
2022-08-23T02:05:38.336Z,8.85
2022-08-23T02:08:21.189Z,8.83
2022-08-23T02:10:49.037Z,8.78
2022-08-23T02:13:18.697Z,8.84
2022-08-23T02:15:51.122Z,8.85
2022-08-23T02:18:19.497Z,8.86
2022-08-23T02:20:48.966Z,8.88
2022-08-23T02:23:17.233Z,8.80
2022-08-23T02:25:45.138Z,8.76
2022-08-23T02:28:13.099Z,8.73
2022-08-23T02:30:42.263Z,8.77
2022-08-23T02:33:09.994Z,8.81
2022-08-23T02:35:38.726Z,8.78
2022-08-23T02:38:07.463Z,8.75
2022-08-23T02:40:36.664Z,8.79
2022-08-23T02:43:08.314Z,8.76
2022-08-23T02:45:37.009Z,8.72
2022-08-23T02:48:08.140Z,8.69
2022-08-23T02:50:37.101Z,8.67
2022-08-23T02:53:05.330Z,8.67
2022-08-23T02:55:33.124Z,8.58
2022-08-23T02:58:01.063Z,8.66
2022-08-23T03:00:29.274Z,8.63
2022-08-23T03:02:57.332Z,8.57
2022-08-23T03:05:26.632Z,8.54
2022-08-23T03:07:54.532Z,8.54
2022-08-23T03:10:22.437Z,8.52
2022-08-23T03:12:50.934Z,8.54
2022-08-23T03:15:18.878Z,8.53
2022-08-23T03:17:46.607Z,8.52
2022-08-23T03:20:14.366Z,8.46
2022-08-23T03:22:53.309Z,8.43
2022-08-23T03:25:22.783Z,8.46
2022-08-23T03:27:50.534Z,8.42
2022-08-23T03:30:19.948Z,8.42
2022-08-23T03:32:48.988Z,8.34
2022-08-23T03:35:17.555Z,8.30
2022-08-23T03:37:46.869Z,8.29
2022-08-23T03:40:14.811Z,8.22
2022-08-23T03:42:42.652Z,8.17
2022-08-23T03:45:11.178Z,8.18
2022-08-23T03:47:39.425Z,8.20
2022-08-23T03:50:08.001Z,8.19
2022-08-23T03:52:35.760Z,8.26
2022-08-23T03:55:05.597Z,8.28
2022-08-23T03:57:33.976Z,8.29
2022-08-23T04:00:01.873Z,8.19
2022-08-23T04:02:29.733Z,8.15
2022-08-23T04:04:57.590Z,8.19
2022-08-23T04:07:25.721Z,8.16
2022-08-23T04:09:55.362Z,8.12
2022-08-23T04:12:24.938Z,8.15
2022-08-23T04:14:53.454Z,8.15
2022-08-23T04:17:21.634Z,8.15
2022-08-23T04:19:50.182Z,8.13
2022-08-23T04:22:19.802Z,8.10
2022-08-23T04:24:48.010Z,8.14
2022-08-23T04:27:15.910Z,8.12
2022-08-23T04:29:45.002Z,8.12
2022-08-23T04:32:12.873Z,8.15
2022-08-23T04:34:42.372Z,8.10
2022-08-23T04:37:13.741Z,8.08
2022-08-23T04:39:55.455Z,8.08
2022-08-23T04:42:23.973Z,8.04
2022-08-23T04:44:53.306Z,8.05
2022-08-23T04:47:21.395Z,8.00
2022-08-23T04:49:49.143Z,8.00
2022-08-23T04:52:19.418Z,7.99
2022-08-23T04:54:47.828Z,8.05
2022-08-23T04:57:16.818Z,8.03
2022-08-23T04:59:44.712Z,8.08
2022-08-23T05:02:14.472Z,8.13
2022-08-23T05:04:42.424Z,8.17
2022-08-23T05:07:10.823Z,8.16
2022-08-23T05:09:38.626Z,8.17
2022-08-23T05:12:06.763Z,8.19
2022-08-23T05:14:34.911Z,8.22
2022-08-23T05:17:03.094Z,8.35
2022-08-23T05:19:33.019Z,8.35
2022-08-23T05:22:00.755Z,8.45
2022-08-23T05:24:28.500Z,8.48
2022-08-23T05:26:56.278Z,8.58
2022-08-23T05:29:24.067Z,8.59
2022-08-23T05:31:52.185Z,8.68
2022-08-23T05:34:22.637Z,8.67
2022-08-23T05:36:55.835Z,8.75
2022-08-23T05:39:32.734Z,8.87
2022-08-23T05:42:05.103Z,8.94
2022-08-23T05:44:34.491Z,9.01
2022-08-23T05:47:05.389Z,9.16
2022-08-23T05:49:38.697Z,9.32
2022-08-23T05:52:09.627Z,9.40
2022-08-23T05:54:37.990Z,9.55
2022-08-23T05:57:05.837Z,9.73
2022-08-23T05:59:33.649Z,9.86
2022-08-23T06:02:01.932Z,10.08
2022-08-23T06:04:29.740Z,10.44
2022-08-23T06:06:58.913Z,10.78
2022-08-23T06:09:28.175Z,11.12
2022-08-23T06:11:55.898Z,11.38
2022-08-23T06:14:23.832Z,11.65
2022-08-23T06:16:55.756Z,11.87
2022-08-23T06:19:24.907Z,12.08
2022-08-23T06:21:53.391Z,12.26
2022-08-23T06:24:21.649Z,12.41
2022-08-23T06:26:50.760Z,12.58
2022-08-23T06:29:20.640Z,12.74
2022-08-23T06:31:52.487Z,12.99
2022-08-23T06:34:23.037Z,13.20
2022-08-23T06:36:53.918Z,13.39
2022-08-23T06:39:24.371Z,13.56
2022-08-23T06:41:54.725Z,13.80
2022-08-23T06:44:22.526Z,13.98
2022-08-23T06:46:50.246Z,14.17
2022-08-23T06:49:18.285Z,14.40
2022-08-23T06:51:51.015Z,14.49
2022-08-23T06:54:22.406Z,14.72
2022-08-23T06:56:51.374Z,14.89
2022-08-23T06:59:21.116Z,14.98
2022-08-23T07:01:52.676Z,15.13
2022-08-23T07:04:23.117Z,15.34
2022-08-23T07:06:51.152Z,15.46
2022-08-23T07:09:19.645Z,15.60
2022-08-23T07:11:47.809Z,15.82
2022-08-23T07:14:17.513Z,15.92
2022-08-23T07:16:49.869Z,16.09
2022-08-23T07:19:18.863Z,16.29
2022-08-23T07:21:48.650Z,16.43
2022-08-23T07:24:17.884Z,16.56
2022-08-23T07:26:47.481Z,16.60
2022-08-23T07:29:16.803Z,16.82
2022-08-23T07:31:49.614Z,16.90
2022-08-23T07:34:17.896Z,16.98
2022-08-23T07:36:47.084Z,17.22
2022-08-23T07:39:15.613Z,17.42
2022-08-23T07:41:44.490Z,17.51
2022-08-23T07:44:12.983Z,17.56
2022-08-23T07:46:47.075Z,17.50
2022-08-23T07:49:16.696Z,17.63
2022-08-23T07:51:47.843Z,17.65
2022-08-23T07:54:16.405Z,17.69
2022-08-23T07:56:44.430Z,17.84
2022-08-23T07:59:12.806Z,18.01
2022-08-23T08:01:44.173Z,18.18
2022-08-23T08:04:12.512Z,18.31
2022-08-23T08:06:46.118Z,18.33
2022-08-23T08:09:15.398Z,18.36
2022-08-23T08:11:47.390Z,18.44
2022-08-23T08:14:17.309Z,18.54
2022-08-23T08:16:47.348Z,18.51
2022-08-23T08:19:16.916Z,18.63
2022-08-23T08:21:48.551Z,18.75
2022-08-23T08:24:17.807Z,18.82
2022-08-23T08:26:46.848Z,18.91
2022-08-23T08:29:15.246Z,19.09
2022-08-23T08:31:45.348Z,19.27
2022-08-23T08:34:13.560Z,19.47
2022-08-23T08:36:43.599Z,19.62
2022-08-23T08:39:16.056Z,19.63
2022-08-23T08:42:04.244Z,19.75
2022-08-23T08:44:41.666Z,19.86
2022-08-23T08:47:15.282Z,19.94
2022-08-23T08:49:49.000Z,19.86
2022-08-23T08:52:21.192Z,19.99
2022-08-23T08:54:53.275Z,20.10
2022-08-23T08:57:27.430Z,20.28
2022-08-23T09:00:01.774Z,20.10
2022-08-23T09:02:33.787Z,20.38
2022-08-23T09:05:04.962Z,20.41
2022-08-23T09:07:44.186Z,20.54
2022-08-23T09:10:35.416Z,20.58
2022-08-23T09:13:25.298Z,20.77
2022-08-23T09:16:01.296Z,20.88
2022-08-23T09:18:35.292Z,21.03
2022-08-23T09:21:06.766Z,21.20
2022-08-23T09:23:38.945Z,21.08
2022-08-23T09:26:19.738Z,21.13
2022-08-23T09:28:47.989Z,21.22
2022-08-23T09:31:39.573Z,21.32
2022-08-23T09:34:08.120Z,21.42
2022-08-23T09:36:38.559Z,21.50
2022-08-23T09:39:10.305Z,21.40
2022-08-23T09:41:43.530Z,21.63
2022-08-23T09:44:16.344Z,21.64
2022-08-23T09:46:44.635Z,21.46
2022-08-23T09:49:26.185Z,21.79
2022-08-23T09:51:56.060Z,21.89
2022-08-23T09:54:30.944Z,21.79
2022-08-23T09:57:02.621Z,21.93
2022-08-23T09:59:40.282Z,21.92
2022-08-23T10:02:17.113Z,21.97
2022-08-23T10:04:47.359Z,21.88
2022-08-23T10:07:30.822Z,22.05
2022-08-23T10:10:23.628Z,22.03
2022-08-23T10:12:54.290Z,22.34
2022-08-23T10:15:36.171Z,22.39
2022-08-23T10:18:12.181Z,22.64
2022-08-23T10:20:46.380Z,22.76
2022-08-23T10:23:24.664Z,23.08
2022-08-23T10:25:56.204Z,23.06
2022-08-23T10:28:54.728Z,23.29
2022-08-23T10:31:34.324Z,23.45
2022-08-23T10:34:15.764Z,23.38
2022-08-23T10:36:56.893Z,23.70
2022-08-23T10:39:28.080Z,23.48
2022-08-23T10:42:03.815Z,23.64
2022-08-23T10:44:37.558Z,23.93
2022-08-23T10:47:34.786Z,24.05
2022-08-23T10:50:08.291Z,24.28
2022-08-23T10:52:41.503Z,23.94
2022-08-23T10:55:24.597Z,24.31
2022-08-23T10:57:54.316Z,24.44
2022-08-23T11:00:27.295Z,24.72
2022-08-23T11:03:00.532Z,24.31
2022-08-23T11:05:32.568Z,24.34
2022-08-23T11:08:03.659Z,24.69
2022-08-23T11:10:56.833Z,25.19
2022-08-23T11:13:26.816Z,25.50
2022-08-23T11:16:02.009Z,25.44
2022-08-23T11:18:39.578Z,25.52
2022-08-23T11:21:31.611Z,25.03
2022-08-23T11:24:30.447Z,24.66
2022-08-23T11:27:06.643Z,24.55
2022-08-23T11:29:37.759Z,24.69
2022-08-23T11:32:44.171Z,24.35
2022-08-23T11:35:43.199Z,24.50
2022-08-23T11:38:12.599Z,24.80
2022-08-23T11:40:57.002Z,24.69
2022-08-23T11:43:29.801Z,24.57
2022-08-23T11:46:18.267Z,24.54
2022-08-23T11:48:55.655Z,24.84
2022-08-23T11:51:31.938Z,24.77
2022-08-23T11:54:21.299Z,24.71
2022-08-23T11:57:11.829Z,24.80
2022-08-23T11:59:57.261Z,24.56
2022-08-23T12:02:42.155Z,24.71
2022-08-23T12:05:32.411Z,24.73
2022-08-23T12:08:46.845Z,24.93
2022-08-23T12:11:17.017Z,25.29
2022-08-23T12:14:22.956Z,25.17
2022-08-23T12:16:52.176Z,25.16
2022-08-23T12:19:39.589Z,24.95
2022-08-23T12:22:13.923Z,25.13
2022-08-23T12:24:44.858Z,24.86
2022-08-23T12:27:27.521Z,24.68
2022-08-23T12:30:02.686Z,24.60
2022-08-23T12:32:42.235Z,24.76
2022-08-23T12:35:28.153Z,24.54
2022-08-23T12:38:02.013Z,24.22
2022-08-23T12:40:33.766Z,24.18
2022-08-23T12:43:09.824Z,24.40
2022-08-23T12:45:42.600Z,24.22
2022-08-23T12:48:13.904Z,24.20
2022-08-23T12:50:43.664Z,24.24
2022-08-23T12:53:13.985Z,23.91
2022-08-23T12:55:46.333Z,23.74
2022-08-23T12:58:16.269Z,23.93
2022-08-23T13:00:53.115Z,23.87
2022-08-23T13:03:28.307Z,23.96
2022-08-23T13:06:01.901Z,23.76
2022-08-23T13:08:35.562Z,23.84
2022-08-23T13:11:08.002Z,24.16
2022-08-23T13:13:39.188Z,24.39
2022-08-23T13:16:27.309Z,24.48
2022-08-23T13:19:11.113Z,24.43
2022-08-23T13:21:39.867Z,24.32
2022-08-23T13:24:38.170Z,24.23
2022-08-23T13:27:22.535Z,24.09
2022-08-23T13:29:52.809Z,24.06
2022-08-23T13:32:33.662Z,24.03
2022-08-23T13:35:26.719Z,24.33
2022-08-23T13:37:58.009Z,24.26
2022-08-23T13:40:29.516Z,24.19
2022-08-23T13:43:00.648Z,24.31
2022-08-23T13:45:30.832Z,24.26
2022-08-23T13:48:02.726Z,24.52
2022-08-23T13:50:34.545Z,24.43
2022-08-23T13:53:14.439Z,24.50
2022-08-23T13:55:47.419Z,24.35
2022-08-23T13:58:25.790Z,24.24
2022-08-23T14:00:55.657Z,24.20
2022-08-23T14:03:24.220Z,24.12
2022-08-23T14:05:53.885Z,24.19
2022-08-23T14:08:22.518Z,24.20
2022-08-23T14:10:51.146Z,24.15
2022-08-23T14:13:29.798Z,24.13
2022-08-23T14:21:39.684Z,23.96
2022-08-23T14:24:07.682Z,23.94
2022-08-23T14:26:36.295Z,23.94
2022-08-23T14:29:04.218Z,23.93
2022-08-23T14:31:33.256Z,23.97
2022-08-23T14:34:02.183Z,24.06
2022-08-23T14:36:30.229Z,24.16
2022-08-23T14:38:59.427Z,24.09
2022-08-23T14:41:29.680Z,24.12
2022-08-23T14:43:57.582Z,24.15
2022-08-23T14:46:25.436Z,24.10
2022-08-23T14:48:53.240Z,24.00
2022-08-23T14:51:27.226Z,23.90
2022-08-23T14:53:55.626Z,23.82
2022-08-23T14:56:25.147Z,23.89
2022-08-23T14:58:53.112Z,23.89
2022-08-23T15:01:21.634Z,23.95
2022-08-23T15:03:50.270Z,24.03
2022-08-23T15:06:19.607Z,24.17
2022-08-23T15:08:48.053Z,24.10
2022-08-23T15:14:05.757Z,23.97
2022-08-23T15:16:33.704Z,24.16
2022-08-23T15:19:01.784Z,24.03
2022-08-23T15:21:29.666Z,23.98
2022-08-23T15:23:57.461Z,24.10
2022-08-23T15:26:28.024Z,24.02
2022-08-23T15:28:55.828Z,24.01
2022-08-23T15:31:25.730Z,23.99
2022-08-23T15:33:53.651Z,23.91
2022-08-23T15:36:21.501Z,23.90
2022-08-23T15:38:51.267Z,23.83
2022-08-23T15:41:21.731Z,23.88
2022-08-23T15:43:50.200Z,23.89
2022-08-23T15:46:20.672Z,23.88
2022-08-23T15:48:54.205Z,23.94
2022-08-23T15:51:21.973Z,23.93
2022-08-23T15:53:49.833Z,23.83
2022-08-23T15:56:22.426Z,23.83
2022-08-23T15:58:50.555Z,23.83
2022-08-23T16:01:21.752Z,23.77
2022-08-23T16:03:53.581Z,23.74
2022-08-23T16:06:21.500Z,23.66
2022-08-23T16:08:52.729Z,23.58
2022-08-23T16:11:21.656Z,23.55
2022-08-23T16:13:51.585Z,23.58
2022-08-23T16:16:24.975Z,23.62
2022-08-23T16:18:55.070Z,23.76
2022-08-23T16:21:25.145Z,23.98
2022-08-23T16:23:52.971Z,24.30
2022-08-23T16:26:34.740Z,24.53
2022-08-23T16:29:04.560Z,24.69
2022-08-23T16:31:38.840Z,24.94
2022-08-23T16:34:11.420Z,24.92
2022-08-23T16:36:41.109Z,25.15
2022-08-23T16:39:09.338Z,25.28
2022-08-23T16:41:37.143Z,25.13
2022-08-23T16:44:05.377Z,24.92
2022-08-23T16:46:33.300Z,24.74
2022-08-23T16:49:01.115Z,24.66
2022-08-23T16:51:30.313Z,25.01
2022-08-23T16:54:02.867Z,25.43
2022-08-23T16:56:31.588Z,26.23
2022-08-23T16:58:59.776Z,27.02
2022-08-23T17:01:28.283Z,27.75
2022-08-23T17:03:56.523Z,29.27
2022-08-23T17:06:24.346Z,30.08
2022-08-23T17:08:53.651Z,29.24
2022-08-23T17:11:21.474Z,28.31
2022-08-23T17:13:49.303Z,26.94
2022-08-23T17:16:18.839Z,25.74
2022-08-23T17:18:47.214Z,25.00
2022-08-23T17:21:21.452Z,24.34
2022-08-23T17:23:49.241Z,23.85
2022-08-23T17:26:18.667Z,23.40
2022-08-23T17:28:46.922Z,23.07
2022-08-23T17:31:16.089Z,22.77
2022-08-23T17:33:44.230Z,22.64
2022-08-23T17:36:27.384Z,22.49
2022-08-23T17:38:58.054Z,22.25
2022-08-23T17:41:28.359Z,22.00
2022-08-23T17:43:56.430Z,21.67
2022-08-23T17:46:24.572Z,21.54
2022-08-23T17:48:52.703Z,21.21
2022-08-23T17:51:20.754Z,21.01
2022-08-23T17:53:48.515Z,20.78
2022-08-23T17:56:16.695Z,20.48
2022-08-23T17:58:45.946Z,20.35
2022-08-23T18:01:13.897Z,20.11
2022-08-23T18:03:42.088Z,19.93
2022-08-23T18:06:16.818Z,19.69
2022-08-23T18:08:45.558Z,19.52
2022-08-23T18:11:13.926Z,19.38
2022-08-23T18:13:41.809Z,19.11
2022-08-23T18:16:14.270Z,18.89
2022-08-23T18:18:42.560Z,18.76
2022-08-23T18:21:12.656Z,18.60
2022-08-23T18:23:41.098Z,18.36
2022-08-23T18:26:30.346Z,18.07
2022-08-23T18:28:57.896Z,17.89
2022-08-23T18:31:27.777Z,17.77
2022-08-23T18:34:00.377Z,17.61
2022-08-23T18:36:29.967Z,17.45
2022-08-23T18:38:58.526Z,17.28
2022-08-23T18:41:28.349Z,17.16
2022-08-23T18:43:56.164Z,17.05
2022-08-23T18:46:28.445Z,16.92
2022-08-23T18:49:00.934Z,16.79
2022-08-23T18:51:29.670Z,16.67
2022-08-23T18:53:57.655Z,16.56
2022-08-23T18:56:25.706Z,16.45
2022-08-23T18:58:54.457Z,16.32
2022-08-23T19:01:24.278Z,16.29
2022-08-23T19:03:52.753Z,16.21
2022-08-23T19:06:22.391Z,16.11
2022-08-23T19:08:50.910Z,16.01
2022-08-23T19:11:19.985Z,15.90
2022-08-23T19:13:48.664Z,15.84
2022-08-23T19:16:17.102Z,15.73
2022-08-23T19:18:47.231Z,15.64
2022-08-23T19:21:16.247Z,15.60
2022-08-23T19:23:45.618Z,15.55
2022-08-23T19:26:15.222Z,15.47
2022-08-23T19:28:43.498Z,15.39
2022-08-23T19:31:11.590Z,15.21
2022-08-23T19:33:39.493Z,15.06
2022-08-23T19:36:18.949Z,15.07
2022-08-23T19:38:57.670Z,14.94
2022-08-23T19:41:25.744Z,14.86
2022-08-23T19:43:53.783Z,14.80
2022-08-23T19:46:21.804Z,14.77
2022-08-23T19:48:51.311Z,14.70
2022-08-23T19:51:21.219Z,14.67
2022-08-23T19:54:04.556Z,14.58
2022-08-23T19:56:36.397Z,14.46
2022-08-23T19:59:05.991Z,14.35
2022-08-23T20:01:34.151Z,14.26
2022-08-23T20:04:02.864Z,14.16
2022-08-23T20:06:33.734Z,14.11
2022-08-23T20:09:01.692Z,14.08
2022-08-23T20:11:29.573Z,14.06
2022-08-23T20:13:59.374Z,14.06
2022-08-23T20:16:27.895Z,14.02
2022-08-23T20:18:56.166Z,13.98
2022-08-23T20:21:24.639Z,13.91
2022-08-23T20:24:04.468Z,13.86
2022-08-23T20:26:35.133Z,13.82
2022-08-23T20:29:06.315Z,13.77
2022-08-23T20:31:36.589Z,13.71
2022-08-23T20:34:05.247Z,13.72
2022-08-23T20:36:33.419Z,13.70
2022-08-23T20:39:02.361Z,13.67
2022-08-23T20:41:32.854Z,13.62
2022-08-23T20:44:02.180Z,13.53
2022-08-23T20:46:31.764Z,13.50
2022-08-23T20:48:59.890Z,13.43
2022-08-23T20:51:29.422Z,13.41
2022-08-23T20:53:58.241Z,13.40
2022-08-23T20:56:28.186Z,13.37
2022-08-23T20:58:56.531Z,13.30
2022-08-23T21:01:24.909Z,13.27
2022-08-23T21:03:54.332Z,13.22
2022-08-23T21:06:23.923Z,13.12
2022-08-23T21:08:55.982Z,13.08
2022-08-23T21:11:26.026Z,13.05
2022-08-23T21:13:54.625Z,12.99
2022-08-23T21:16:23.132Z,12.95
2022-08-23T21:18:52.116Z,12.95
2022-08-23T21:21:25.341Z,12.92
2022-08-23T21:23:53.956Z,12.86
2022-08-23T21:26:23.411Z,12.86
2022-08-23T21:28:51.434Z,12.87
2022-08-23T21:31:24.383Z,12.86
2022-08-23T21:33:53.151Z,12.83
2022-08-23T21:36:23.197Z,12.86
2022-08-23T21:38:52.534Z,12.85
2022-08-23T21:41:34.640Z,12.85
2022-08-23T21:44:04.113Z,12.84
2022-08-23T21:46:32.277Z,12.88
2022-08-23T21:49:00.846Z,12.97
2022-08-23T21:51:28.817Z,13.00
2022-08-23T21:54:00.956Z,12.99
2022-08-23T21:56:29.336Z,13.01
2022-08-23T21:58:59.537Z,12.95
2022-08-23T22:01:27.769Z,12.95
2022-08-23T22:03:57.115Z,12.96
2022-08-23T22:06:25.443Z,12.98
2022-08-23T22:08:53.224Z,13.04
2022-08-23T22:11:24.104Z,13.05
2022-08-23T22:13:52.468Z,13.06
2022-08-23T22:16:20.345Z,13.15
2022-08-23T22:18:48.169Z,13.27
2022-08-23T22:21:16.146Z,13.46
2022-08-23T22:23:44.573Z,13.61
2022-08-23T22:26:14.309Z,13.75
2022-08-23T22:28:44.734Z,13.88
2022-08-23T22:31:14.953Z,14.02
2022-08-23T22:33:43.743Z,14.06
2022-08-23T22:36:14.981Z,14.09
2022-08-23T22:38:42.794Z,14.16
2022-08-23T22:41:11.232Z,14.16
2022-08-23T22:43:38.965Z,14.05
2022-08-23T22:46:10.732Z,13.81
2022-08-23T22:48:38.866Z,13.69
2022-08-23T22:51:09.693Z,13.57
2022-08-23T22:53:39.405Z,13.59
2022-08-23T22:56:08.492Z,13.56
2022-08-23T22:58:36.575Z,13.41
2022-08-23T23:06:47.405Z,13.14
2022-08-23T23:09:15.270Z,13.04
2022-08-23T23:11:43.812Z,13.03
2022-08-23T23:14:12.946Z,13.06
2022-08-23T23:16:41.026Z,12.88
2022-08-23T23:19:26.393Z,12.70
2022-08-23T23:21:57.537Z,12.55
2022-08-23T23:24:27.976Z,12.68
2022-08-23T23:26:55.986Z,12.61
2022-08-23T23:29:23.867Z,12.40
2022-08-23T23:31:51.863Z,12.28
2022-08-23T23:34:19.813Z,12.19
2022-08-23T23:36:48.027Z,12.11
2022-08-23T23:39:17.718Z,12.07
2022-08-23T23:41:45.479Z,12.14
2022-08-23T23:44:13.281Z,12.04
2022-08-23T23:46:43.398Z,11.95
2022-08-23T23:49:13.116Z,11.83
2022-08-23T23:51:41.488Z,11.79
2022-08-23T23:54:09.271Z,11.71
2022-08-23T23:56:43.812Z,11.57
2022-08-23T23:59:11.573Z,11.52
